KDLN/DLN METAR and TAF weather

Enter ICAO airport designator
Station Type Date Time Source
KDLN METAR 2021/04/13 22:53 UTC NOAA

KDLN 132253Z AUTO 02020G29KT 10SM CLR 03/M13 A3015 RMK AO2 PK WND 02031/2223 SLP243 T00331128


Station Type Date Time Source
KDLN Decoded METAR 2021/04/13 22:53 UTC NOAA

DILLON AIRPORT, MT, United States (KDLN) 45-15N 112-33W 1591M
Apr 13, 2021 - 06:53 PM EDT / 2021.04.13 2253 UTC
Wind: from the NNE (020 degrees) at 23 MPH (20 KT) gusting to 33 MPH (29 KT):0
Visibility: 10 mile(s):0
Sky conditions: clear
Temperature: 37.9 F (3.3 C)
Dew Point: 9.0 F (-12.8 C)
Relative Humidity: 29%
Pressure (altimeter): 30.15 in. Hg (1020 hPa)
ob: KDLN 132253Z AUTO 02020G29KT 10SM CLR 03/M13 A3015 RMK AO2 PK WND 02031/2223 SLP243 T00331128
cycle: 23

Station Type Date Time Source
KDLN TAF UTC NOAA

Error!

Example: see airport list